Terminal Aerodrome Forecast
Issued by NWS

Home | Current Version | Previous Version | Text Only | Print | Product List | Glossary On
Versions: 1 2 3 4 5 6 7 8 9 10 11 12 13
325
FTUS42 TJSJ 261135
TAFJMZ
TAF
TJMZ 261135Z 2612/2712 06006KT P6SM BKN250
     FM261530 28010KT P6SM VCSH SCT040 BKN250
     FM262300 06005KT P6SM FEW060
      AMD NOT SKED TIL 261500=

USA.gov is the U.S. government's official web portal to all federal, state and local government web resources and services.